PWSweather.com
Personal Weather Stations
Station Observations
DW1039
Liberty & Fairfield Townships, Hamilton, OH 45011

Liberty & Fairfield TownshipsHamilton, OH 45011

Lat: 39.3933, Lon: -84.477

Elevation: 780

Station Type: Davis Vantage Pro2 (Daytime Fan Aspirated)

http://www.lfweathercenter.com/

Latest ConditionsUpdated 4:50:13 PM EST Sunday, Jan 19, 2020
Currently Today's Max Today's Min Today's Average
Temperature 15.5°F-9.2°C 28.0°F-2.2°C 15.5°F-9.2°C 19.3°F-7.1°C
Dew Point 9.9°F-12.3°C 22.0°F-5.6°C 8.3°F-13.2°C 12.8°F-10.7°C
Winds 1.0 mph SSW1.6 kmh SSW 7.0 mph -11.3 kmh - - 2.5 mph 4.0 kmh
Wind Gusts 4.0 mph6.4 kmh 15.0 mph24.1 kmh - -
Humidity 78% 80% 70% 75%
Pressure 30.39 in1029.1 mb 30.39 in1029.1 mb 30.05 in1017.6 mb -
Hour Temp Dew Point Humidity Winds Wind Gusts Pressure Precip Precip Rate Daily Precip Total
04:50 PM 15.5°F-9.2°C 9.9°F-12.3°C 78% 1.0 mph SSW1.6 kmh SSW 4.0 mph6.4 kmh 30.39 in1029.1 mb 0.00 in0.0 mm 0.00 in0.0 mm 0.00 in0.0 mm
04:40 PM 15.5°F-9.2°C 9.0°F-12.8°C 75% 3.0 mph N4.8 kmh N 6.0 mph9.7 kmh 30.39 in1029.1 mb 0.00 in0.0 mm 0.00 in0.0 mm 0.00 in0.0 mm
04:30 PM 15.7°F-9.1°C 8.6°F-13.0°C 73% 3.0 mph N4.8 kmh N 9.0 mph14.5 kmh 30.39 in1029.1 mb 0.00 in0.0 mm 0.00 in0.0 mm 0.00 in0.0 mm
04:20 PM 15.7°F-9.1°C 8.9°F-12.8°C 74% 3.0 mph NW4.8 kmh NW 7.0 mph11.3 kmh 30.38 in1028.8 mb 0.00 in0.0 mm 0.00 in0.0 mm 0.00 in0.0 mm
04:10 PM 15.9°F-8.9°C 9.4°F-12.6°C 75% 1.0 mph WSW1.6 kmh WSW 6.0 mph9.7 kmh 30.38 in1028.8 mb 0.00 in0.0 mm 0.00 in0.0 mm 0.00 in0.0 mm
04:00 PM 15.9°F-8.9°C 9.4°F-12.6°C 75% 1.0 mph NNW1.6 kmh NNW 6.0 mph9.7 kmh 30.37 in1028.4 mb 0.00 in0.0 mm 0.00 in0.0 mm 0.00 in0.0 mm
03:50 PM 15.9°F-8.9°C 9.7°F-12.4°C 76% 2.0 mph NW3.2 kmh NW 5.0 mph8.0 kmh 30.36 in1028.1 mb 0.00 in0.0 mm 0.00 in0.0 mm 0.00 in0.0 mm
03:40 PM 15.7°F-9.1°C 9.8°F-12.3°C 77% Calm Calm 6.0 mph9.7 kmh 30.35 in1027.8 mb 0.00 in0.0 mm 0.00 in0.0 mm 0.00 in0.0 mm
03:30 PM 15.6°F-9.1°C 9.1°F-12.7°C 75% 3.0 mph NW4.8 kmh NW 6.0 mph9.7 kmh 30.35 in1027.8 mb 0.00 in0.0 mm 0.00 in0.0 mm 0.00 in0.0 mm
03:20 PM 15.9°F-8.9°C 8.8°F-12.9°C 73% 4.0 mph NW6.4 kmh NW 8.0 mph12.9 kmh 30.34 in1027.4 mb 0.00 in0.0 mm 0.00 in0.0 mm 0.00 in0.0 mm
03:10 PM 15.9°F-8.9°C 9.1°F-12.7°C 74% 2.0 mph W3.2 kmh W 7.0 mph11.3 kmh 30.34 in1027.4 mb 0.00 in0.0 mm 0.00 in0.0 mm 0.00 in0.0 mm
03:00 PM 16.0°F-8.9°C 9.2°F-12.7°C 74% 3.0 mph W4.8 kmh W 10.0 mph16.1 kmh 30.33 in1027.1 mb 0.00 in0.0 mm 0.00 in0.0 mm 0.00 in0.0 mm
02:50 PM 15.9°F-8.9°C 9.1°F-12.7°C 74% 1.0 mph WSW1.6 kmh WSW 10.0 mph16.1 kmh 30.33 in1027.1 mb 0.00 in0.0 mm 0.00 in0.0 mm 0.00 in0.0 mm
02:40 PM 16.0°F-8.9°C 9.8°F-12.3°C 76% 3.0 mph WSW4.8 kmh WSW 8.0 mph12.9 kmh 30.33 in1027.1 mb 0.00 in0.0 mm 0.00 in0.0 mm 0.00 in0.0 mm
02:30 PM 16.3°F-8.7°C 8.9°F-12.8°C 72% 4.0 mph NW6.4 kmh NW 7.0 mph11.3 kmh 30.32 in1026.8 mb 0.00 in0.0 mm 0.00 in0.0 mm 0.00 in0.0 mm
02:20 PM 16.8°F-8.4°C 9.7°F-12.4°C 73% 1.0 mph W1.6 kmh W 5.0 mph8.0 kmh 30.32 in1026.8 mb 0.00 in0.0 mm 0.00 in0.0 mm 0.00 in0.0 mm
02:10 PM 16.6°F-8.6°C 10.1°F-12.2°C 75% 5.0 mph W8.0 kmh W 5.0 mph8.0 kmh 30.32 in1026.8 mb 0.00 in0.0 mm 0.00 in0.0 mm 0.00 in0.0 mm
02:00 PM 16.6°F-8.6°C 9.5°F-12.5°C 73% 2.0 mph WNW3.2 kmh WNW 5.0 mph8.0 kmh 30.32 in1026.8 mb 0.00 in0.0 mm 0.00 in0.0 mm 0.00 in0.0 mm
01:50 PM 16.3°F-8.7°C 9.5°F-12.5°C 74% 3.0 mph N4.8 kmh N 8.0 mph12.9 kmh 30.32 in1026.8 mb 0.00 in0.0 mm 0.00 in0.0 mm 0.00 in0.0 mm
01:40 PM 16.2°F-8.8°C 10.3°F-12.1°C 77% 2.0 mph W3.2 kmh W 7.0 mph11.3 kmh 30.32 in1026.8 mb 0.00 in0.0 mm 0.00 in0.0 mm 0.00 in0.0 mm
01:30 PM 16.3°F-8.7°C 10.4°F-12.0°C 77% 4.0 mph W6.4 kmh W 7.0 mph11.3 kmh 30.31 in1026.4 mb 0.00 in0.0 mm 0.00 in0.0 mm 0.00 in0.0 mm
01:20 PM 16.5°F-8.6°C 10.6°F-11.9°C 77% 1.0 mph NW1.6 kmh NW 6.0 mph9.7 kmh 30.31 in1026.4 mb 0.00 in0.0 mm 0.00 in0.0 mm 0.00 in0.0 mm
01:10 PM 16.7°F-8.5°C 9.6°F-12.4°C 73% 2.0 mph NW3.2 kmh NW 9.0 mph14.5 kmh 30.31 in1026.4 mb 0.00 in0.0 mm 0.00 in0.0 mm 0.00 in0.0 mm
01:00 PM 16.3°F-8.7°C 9.5°F-12.5°C 74% 2.0 mph SW3.2 kmh SW 6.0 mph9.7 kmh 30.31 in1026.4 mb 0.00 in0.0 mm 0.00 in0.0 mm 0.00 in0.0 mm
12:50 PM 16.3°F-8.7°C 9.5°F-12.5°C 74% 6.0 mph NNW9.7 kmh NNW 6.0 mph9.7 kmh 30.31 in1026.4 mb 0.00 in0.0 mm 0.00 in0.0 mm 0.00 in0.0 mm
12:40 PM 16.3°F-8.7°C 9.8°F-12.3°C 75% 1.0 mph NW1.6 kmh NW 6.0 mph9.7 kmh 30.31 in1026.4 mb 0.00 in0.0 mm 0.00 in0.0 mm 0.00 in0.0 mm
12:30 PM 16.3°F-8.7°C 9.8°F-12.3°C 75% 2.0 mph WNW3.2 kmh WNW 7.0 mph11.3 kmh 30.30 in1026.1 mb 0.00 in0.0 mm 0.00 in0.0 mm 0.00 in0.0 mm
12:20 PM 16.6°F-8.6°C 9.5°F-12.5°C 73% 7.0 mph WNW11.3 kmh WNW 7.0 mph11.3 kmh 30.30 in1026.1 mb 0.00 in0.0 mm 0.00 in0.0 mm 0.00 in0.0 mm
12:10 PM 16.7°F-8.5°C 9.6°F-12.4°C 73% 4.0 mph W6.4 kmh W 7.0 mph11.3 kmh 30.30 in1026.1 mb 0.00 in0.0 mm 0.00 in0.0 mm 0.00 in0.0 mm
12:00 PM 16.4°F-8.7°C 8.3°F-13.2°C 70% 2.0 mph SSW3.2 kmh SSW 9.0 mph14.5 kmh 30.30 in1026.1 mb 0.00 in0.0 mm 0.00 in0.0 mm 0.00 in0.0 mm
11:50 AM 16.7°F-8.5°C 9.6°F-12.4°C 73% 1.0 mph N1.6 kmh N 9.0 mph14.5 kmh 30.30 in1026.1 mb 0.00 in0.0 mm 0.00 in0.0 mm 0.00 in0.0 mm
11:40 AM 17.0°F-8.3°C 10.5°F-11.9°C 75% 3.0 mph SSE4.8 kmh SSE 7.0 mph11.3 kmh 30.29 in1025.7 mb 0.00 in0.0 mm 0.00 in0.0 mm 0.00 in0.0 mm
11:30 AM 16.8°F-8.4°C 10.0°F-12.2°C 74% 2.0 mph WSW3.2 kmh WSW 7.0 mph11.3 kmh 30.29 in1025.7 mb 0.00 in0.0 mm 0.00 in0.0 mm 0.00 in0.0 mm
11:20 AM 17.0°F-8.3°C 10.5°F-11.9°C 75% 1.0 mph SW1.6 kmh SW 7.0 mph11.3 kmh 30.29 in1025.7 mb 0.00 in0.0 mm 0.00 in0.0 mm 0.00 in0.0 mm
11:10 AM 17.2°F-8.2°C 10.4°F-12.0°C 74% 1.0 mph W1.6 kmh W 5.0 mph8.0 kmh 30.29 in1025.7 mb 0.00 in0.0 mm 0.00 in0.0 mm 0.00 in0.0 mm
11:00 AM 17.5°F-8.1°C 11.2°F-11.6°C 76% 2.0 mph S3.2 kmh S 7.0 mph11.3 kmh 30.28 in1025.4 mb 0.00 in0.0 mm 0.00 in0.0 mm 0.00 in0.0 mm
10:50 AM 17.1°F-8.3°C 10.9°F-11.7°C 76% Calm Calm 5.0 mph8.0 kmh 30.27 in1025.1 mb 0.00 in0.0 mm 0.00 in0.0 mm 0.00 in0.0 mm
10:40 AM 16.6°F-8.6°C 10.7°F-11.8°C 77% 4.0 mph WSW6.4 kmh WSW 7.0 mph11.3 kmh 30.27 in1025.1 mb 0.00 in0.0 mm 0.00 in0.0 mm 0.00 in0.0 mm
10:30 AM 16.6°F-8.6°C 10.7°F-11.8°C 77% 3.0 mph W4.8 kmh W 6.0 mph9.7 kmh 30.27 in1025.1 mb 0.00 in0.0 mm 0.00 in0.0 mm 0.00 in0.0 mm
10:20 AM 16.7°F-8.5°C 11.3°F-11.5°C 79% Calm Calm 3.0 mph4.8 kmh 30.26 in1024.7 mb 0.00 in0.0 mm 0.00 in0.0 mm 0.00 in0.0 mm
10:10 AM 16.8°F-8.4°C 10.9°F-11.7°C 77% 3.0 mph NW4.8 kmh NW 11.0 mph17.7 kmh 30.26 in1024.7 mb 0.00 in0.0 mm 0.00 in0.0 mm 0.00 in0.0 mm
10:00 AM 16.6°F-8.6°C 10.1°F-12.2°C 75% 2.0 mph NW3.2 kmh NW 6.0 mph9.7 kmh 30.25 in1024.4 mb 0.00 in0.0 mm 0.00 in0.0 mm 0.00 in0.0 mm
09:50 AM 16.1°F-8.8°C 9.3°F-12.6°C 74% 2.0 mph SSW3.2 kmh SSW 11.0 mph17.7 kmh 30.25 in1024.4 mb 0.00 in0.0 mm 0.00 in0.0 mm 0.00 in0.0 mm
09:40 AM 16.3°F-8.7°C 9.5°F-12.5°C 74% 1.0 mph SW1.6 kmh SW 10.0 mph16.1 kmh 30.25 in1024.4 mb 0.00 in0.0 mm 0.00 in0.0 mm 0.00 in0.0 mm
09:30 AM 16.8°F-8.4°C 10.6°F-11.9°C 76% 2.0 mph WSW3.2 kmh WSW 6.0 mph9.7 kmh 30.25 in1024.4 mb 0.00 in0.0 mm 0.00 in0.0 mm 0.00 in0.0 mm
09:20 AM 16.9°F-8.4°C 11.2°F-11.6°C 78% 1.0 mph SW1.6 kmh SW 6.0 mph9.7 kmh 30.24 in1024.0 mb 0.00 in0.0 mm 0.00 in0.0 mm 0.00 in0.0 mm
09:10 AM 17.3°F-8.2°C 11.6°F-11.3°C 78% 4.0 mph NNW6.4 kmh NNW 5.0 mph8.0 kmh 30.24 in1024.0 mb 0.00 in0.0 mm 0.00 in0.0 mm 0.00 in0.0 mm
09:00 AM 17.5°F-8.1°C 11.5°F-11.4°C 77% 6.0 mph WSW9.7 kmh WSW 10.0 mph16.1 kmh 30.23 in1023.7 mb 0.00 in0.0 mm 0.00 in0.0 mm 0.00 in0.0 mm
08:50 AM 17.4°F-8.1°C 11.1°F-11.6°C 76% Calm Calm 7.0 mph11.3 kmh 30.23 in1023.7 mb 0.00 in0.0 mm 0.00 in0.0 mm 0.00 in0.0 mm
08:40 AM 17.4°F-8.1°C 10.9°F-11.7°C 75% 4.0 mph NW6.4 kmh NW 10.0 mph16.1 kmh 30.23 in1023.7 mb 0.00 in0.0 mm 0.00 in0.0 mm 0.00 in0.0 mm
08:30 AM 17.6°F-8.0°C 11.3°F-11.5°C 76% 2.0 mph WSW3.2 kmh WSW 7.0 mph11.3 kmh 30.21 in1023.0 mb 0.00 in0.0 mm 0.00 in0.0 mm 0.00 in0.0 mm
08:20 AM 17.4°F-8.1°C 11.4°F-11.4°C 77% Calm Calm 4.0 mph6.4 kmh 30.21 in1023.0 mb 0.00 in0.0 mm 0.00 in0.0 mm 0.00 in0.0 mm
08:10 AM 17.3°F-8.2°C 11.3°F-11.5°C 77% Calm Calm 5.0 mph8.0 kmh 30.21 in1023.0 mb 0.00 in0.0 mm 0.00 in0.0 mm 0.00 in0.0 mm
08:00 AM 17.2°F-8.2°C 11.2°F-11.6°C 77% 3.0 mph NW4.8 kmh NW 5.0 mph8.0 kmh 30.21 in1023.0 mb 0.00 in0.0 mm 0.00 in0.0 mm 0.00 in0.0 mm
07:50 AM 17.1°F-8.3°C 10.9°F-11.7°C 76% 2.0 mph WNW3.2 kmh WNW 9.0 mph14.5 kmh 30.20 in1022.7 mb 0.00 in0.0 mm 0.00 in0.0 mm 0.00 in0.0 mm
07:40 AM 17.2°F-8.2°C 11.0°F-11.7°C 76% 5.0 mph SW8.0 kmh SW 9.0 mph14.5 kmh 30.20 in1022.7 mb 0.00 in0.0 mm 0.00 in0.0 mm 0.00 in0.0 mm
07:30 AM 17.2°F-8.2°C 11.2°F-11.6°C 77% 6.0 mph WNW9.7 kmh WNW 9.0 mph14.5 kmh 30.19 in1022.4 mb 0.00 in0.0 mm 0.00 in0.0 mm 0.00 in0.0 mm
07:20 AM 17.4°F-8.1°C 11.7°F-11.3°C 78% 3.0 mph WSW4.8 kmh WSW 7.0 mph11.3 kmh 30.19 in1022.4 mb 0.00 in0.0 mm 0.00 in0.0 mm 0.00 in0.0 mm
07:10 AM 17.9°F-7.8°C 11.3°F-11.5°C 75% 2.0 mph SW3.2 kmh SW 9.0 mph14.5 kmh 30.19 in1022.4 mb 0.00 in0.0 mm 0.00 in0.0 mm 0.00 in0.0 mm
07:00 AM 18.0°F-7.8°C 10.8°F-11.8°C 73% 1.0 mph SSW1.6 kmh SSW 9.0 mph14.5 kmh 30.19 in1022.4 mb 0.00 in0.0 mm 0.00 in0.0 mm 0.00 in0.0 mm
06:50 AM 18.1°F-7.7°C 10.9°F-11.7°C 73% 1.0 mph E1.6 kmh E 7.0 mph11.3 kmh 30.18 in1022.0 mb 0.00 in0.0 mm 0.00 in0.0 mm 0.00 in0.0 mm
06:40 AM 18.1°F-7.7°C 10.9°F-11.7°C 73% 1.0 mph S1.6 kmh S 6.0 mph9.7 kmh 30.17 in1021.7 mb 0.00 in0.0 mm 0.00 in0.0 mm 0.00 in0.0 mm
06:30 AM 18.2°F-7.7°C 11.0°F-11.7°C 73% 3.0 mph SW4.8 kmh SW 11.0 mph17.7 kmh 30.17 in1021.7 mb 0.00 in0.0 mm 0.00 in0.0 mm 0.00 in0.0 mm
06:20 AM 18.3°F-7.6°C 11.7°F-11.3°C 75% 4.0 mph S6.4 kmh S 13.0 mph20.9 kmh 30.16 in1021.3 mb 0.00 in0.0 mm 0.00 in0.0 mm 0.00 in0.0 mm
06:10 AM 18.3°F-7.6°C 11.7°F-11.3°C 75% 1.0 mph SW1.6 kmh SW 9.0 mph14.5 kmh 30.16 in1021.3 mb 0.00 in0.0 mm 0.00 in0.0 mm 0.00 in0.0 mm
06:00 AM 18.2°F-7.7°C 11.3°F-11.5°C 74% 3.0 mph SW4.8 kmh SW 9.0 mph14.5 kmh 30.16 in1021.3 mb 0.00 in0.0 mm 0.00 in0.0 mm 0.00 in0.0 mm
05:50 AM 18.2°F-7.7°C 11.0°F-11.7°C 73% 1.0 mph WNW1.6 kmh WNW 9.0 mph14.5 kmh 30.16 in1021.3 mb 0.00 in0.0 mm 0.00 in0.0 mm 0.00 in0.0 mm
05:40 AM 18.5°F-7.5°C 11.3°F-11.5°C 73% 2.0 mph W3.2 kmh W 7.0 mph11.3 kmh 30.16 in1021.3 mb 0.00 in0.0 mm 0.00 in0.0 mm 0.00 in0.0 mm
05:30 AM 18.9°F-7.3°C 11.4°F-11.4°C 72% 4.0 mph WNW6.4 kmh WNW 10.0 mph16.1 kmh 30.15 in1021.0 mb 0.00 in0.0 mm 0.00 in0.0 mm 0.00 in0.0 mm
05:20 AM 19.9°F-6.7°C 12.7°F-10.7°C 73% 3.0 mph W4.8 kmh W 10.0 mph16.1 kmh 30.14 in1020.7 mb 0.00 in0.0 mm 0.00 in0.0 mm 0.00 in0.0 mm
05:10 AM 21.0°F-6.1°C 14.3°F-9.8°C 75% Calm Calm 11.0 mph17.7 kmh 30.13 in1020.3 mb 0.00 in0.0 mm 0.00 in0.0 mm 0.00 in0.0 mm
05:00 AM 21.4°F-5.9°C 14.7°F-9.6°C 75% 3.0 mph SSE4.8 kmh SSE 12.0 mph19.3 kmh 30.13 in1020.3 mb 0.00 in0.0 mm 0.00 in0.0 mm 0.00 in0.0 mm
04:50 AM 21.6°F-5.8°C 14.3°F-9.8°C 73% 7.0 mph SW11.3 kmh SW 11.0 mph17.7 kmh 30.12 in1020.0 mb 0.00 in0.0 mm 0.00 in0.0 mm 0.00 in0.0 mm
04:40 AM 22.0°F-5.6°C 14.4°F-9.8°C 72% 5.0 mph SW8.0 kmh SW 11.0 mph17.7 kmh 30.11 in1019.6 mb 0.00 in0.0 mm 0.00 in0.0 mm 0.00 in0.0 mm
04:30 AM 22.9°F-5.1°C 15.6°F-9.1°C 73% 3.0 mph WNW4.8 kmh WNW 11.0 mph17.7 kmh 30.11 in1019.6 mb 0.00 in0.0 mm 0.00 in0.0 mm 0.00 in0.0 mm
04:20 AM 23.1°F-4.9°C 16.7°F-8.5°C 76% 2.0 mph NE3.2 kmh NE 7.0 mph11.3 kmh 30.10 in1019.3 mb 0.00 in0.0 mm 0.00 in0.0 mm 0.00 in0.0 mm
04:10 AM 23.5°F-4.7°C 18.0°F-7.8°C 79% 1.0 mph NW1.6 kmh NW 15.0 mph24.1 kmh 30.10 in1019.3 mb 0.00 in0.0 mm 0.00 in0.0 mm 0.00 in0.0 mm
04:00 AM 23.6°F-4.7°C 18.4°F-7.6°C 80% 3.0 mph NW4.8 kmh NW 6.0 mph9.7 kmh 30.09 in1019.0 mb 0.00 in0.0 mm 0.00 in0.0 mm 0.00 in0.0 mm
03:50 AM 23.9°F-4.5°C 18.1°F-7.7°C 78% 2.0 mph SW3.2 kmh SW 10.0 mph16.1 kmh 30.09 in1019.0 mb 0.00 in0.0 mm 0.00 in0.0 mm 0.00 in0.0 mm
03:40 AM 24.0°F-4.4°C 17.6°F-8.0°C 76% 1.0 mph N1.6 kmh N 9.0 mph14.5 kmh 30.08 in1018.6 mb 0.00 in0.0 mm 0.00 in0.0 mm 0.00 in0.0 mm
03:30 AM 24.0°F-4.4°C 17.2°F-8.2°C 75% 2.0 mph WSW3.2 kmh WSW 11.0 mph17.7 kmh 30.08 in1018.6 mb 0.00 in0.0 mm 0.00 in0.0 mm 0.00 in0.0 mm
03:20 AM 24.0°F-4.4°C 17.6°F-8.0°C 76% 1.0 mph NW1.6 kmh NW 9.0 mph14.5 kmh 30.08 in1018.6 mb 0.00 in0.0 mm 0.00 in0.0 mm 0.00 in0.0 mm
03:10 AM 23.9°F-4.5°C 17.1°F-8.3°C 75% 1.0 mph WSW1.6 kmh WSW 10.0 mph16.1 kmh 30.08 in1018.6 mb 0.00 in0.0 mm 0.00 in0.0 mm 0.00 in0.0 mm
03:00 AM 23.9°F-4.5°C 17.1°F-8.3°C 75% 7.0 mph SW11.3 kmh SW 12.0 mph19.3 kmh 30.08 in1018.6 mb 0.00 in0.0 mm 0.00 in0.0 mm 0.00 in0.0 mm
02:50 AM 23.9°F-4.5°C 17.1°F-8.3°C 75% 3.0 mph NW4.8 kmh NW 13.0 mph20.9 kmh 30.08 in1018.6 mb 0.00 in0.0 mm 0.00 in0.0 mm 0.00 in0.0 mm
02:40 AM 24.0°F-4.4°C 16.9°F-8.4°C 74% 5.0 mph SW8.0 kmh SW 10.0 mph16.1 kmh 30.08 in1018.6 mb 0.00 in0.0 mm 0.00 in0.0 mm 0.00 in0.0 mm
02:30 AM 24.0°F-4.4°C 16.9°F-8.4°C 74% 1.0 mph SW1.6 kmh SW 8.0 mph12.9 kmh 30.08 in1018.6 mb 0.00 in0.0 mm 0.00 in0.0 mm 0.00 in0.0 mm
02:20 AM 24.5°F-4.2°C 17.1°F-8.3°C 73% 4.0 mph WSW6.4 kmh WSW 10.0 mph16.1 kmh 30.07 in1018.3 mb 0.00 in0.0 mm 0.00 in0.0 mm 0.00 in0.0 mm
02:10 AM 24.7°F-4.1°C 17.9°F-7.8°C 75% Calm Calm 6.0 mph9.7 kmh 30.07 in1018.3 mb 0.00 in0.0 mm 0.00 in0.0 mm 0.00 in0.0 mm
02:00 AM 25.0°F-3.9°C 18.5°F-7.5°C 76% 1.0 mph SW1.6 kmh SW 10.0 mph16.1 kmh 30.07 in1018.3 mb 0.00 in0.0 mm 0.00 in0.0 mm 0.00 in0.0 mm
01:50 AM 25.6°F-3.6°C 19.4°F-7.0°C 77% 3.0 mph S4.8 kmh S 10.0 mph16.1 kmh 30.06 in1017.9 mb 0.00 in0.0 mm 0.00 in0.0 mm 0.00 in0.0 mm
01:40 AM 26.0°F-3.3°C 19.8°F-6.8°C 77% 3.0 mph WSW4.8 kmh WSW 8.0 mph12.9 kmh 30.06 in1017.9 mb 0.00 in0.0 mm 0.00 in0.0 mm 0.00 in0.0 mm
01:30 AM 26.1°F-3.3°C 19.9°F-6.7°C 77% 2.0 mph SE3.2 kmh SE 15.0 mph24.1 kmh 30.06 in1017.9 mb 0.00 in0.0 mm 0.00 in0.0 mm 0.00 in0.0 mm
01:20 AM 26.2°F-3.2°C 20.3°F-6.5°C 78% Calm Calm 9.0 mph14.5 kmh 30.05 in1017.6 mb 0.00 in0.0 mm 0.00 in0.0 mm 0.00 in0.0 mm
01:10 AM 26.3°F-3.2°C 20.4°F-6.4°C 78% 4.0 mph WNW6.4 kmh WNW 6.0 mph9.7 kmh 30.05 in1017.6 mb 0.00 in0.0 mm 0.00 in0.0 mm 0.00 in0.0 mm
01:00 AM 26.3°F-3.2°C 20.4°F-6.4°C 78% 2.0 mph S3.2 kmh S 10.0 mph16.1 kmh 30.05 in1017.6 mb 0.00 in0.0 mm 0.00 in0.0 mm 0.00 in0.0 mm
12:50 AM 26.7°F-2.9°C 20.5°F-6.4°C 77% 5.0 mph NW8.0 kmh NW 11.0 mph17.7 kmh 30.05 in1017.6 mb 0.00 in0.0 mm 0.00 in0.0 mm 0.00 in0.0 mm
12:40 AM 26.9°F-2.8°C 21.0°F-6.1°C 78% 5.0 mph W8.0 kmh W 10.0 mph16.1 kmh 30.06 in1017.9 mb 0.00 in0.0 mm 0.00 in0.0 mm 0.00 in0.0 mm
12:30 AM 27.2°F-2.7°C 21.3°F-5.9°C 78% 4.0 mph N6.4 kmh N 11.0 mph17.7 kmh 30.06 in1017.9 mb 0.00 in0.0 mm 0.00 in0.0 mm 0.00 in0.0 mm
12:20 AM 27.4°F-2.6°C 21.5°F-5.8°C 78% 2.0 mph S3.2 kmh S 11.0 mph17.7 kmh 30.05 in1017.6 mb 0.00 in0.0 mm 0.00 in0.0 mm 0.00 in0.0 mm
12:10 AM 27.7°F-2.4°C 21.8°F-5.7°C 78% 2.0 mph NNW3.2 kmh NNW 7.0 mph11.3 kmh 30.05 in1017.6 mb 0.00 in0.0 mm 0.00 in0.0 mm 0.00 in0.0 mm
12:00 AM 28.0°F-2.2°C 22.0°F-5.6°C 78% 2.0 mph NNW3.2 kmh NNW 12.0 mph19.3 kmh 30.05 in1017.6 mb 0.00 in0.0 mm 0.00 in0.0 mm 0.00 in0.0 mm